Time;durP1;ratioP1;P1;durP2;ratioP2;P2;SDS_P1;SDS_P2;PMS_P1;PMS_P2;Temp;Humidity;BMP_temperature;BMP_pressure;BME280_temperature;BME280_humidity;BME280_pressure;Samples;Min_cycle;Max_cycle;Signal;HPM_P1;HPM_P2
2021/06/07 00:00:45;;;;;;;40.40;20.08;;;17.80;99.10;;;;;;5054464;28;20177;-82
2021/06/07 00:03:11;;;;;;;40.35;16.73;;;17.80;99.10;;;;;;5054713;28;20699;-82
2021/06/07 00:05:37;;;;;;;48.80;19.10;;;17.90;99.10;;;;;;5053523;28;20169;-83
2021/06/07 00:08:04;;;;;;;41.55;18.30;;;17.90;99.10;;;;;;5054134;28;20178;-83
2021/06/07 00:10:30;;;;;;;45.75;18.75;;;17.80;99.10;;;;;;5054237;28;20173;-82
2021/06/07 00:12:55;;;;;;;46.67;20.35;;;17.80;99.10;;;;;;5054498;28;20221;-82
2021/06/07 00:15:24;;;;;;;43.53;19.60;;;17.80;99.10;;;;;;5054828;28;20548;-82
2021/06/07 00:17:50;;;;;;;43.60;17.60;;;17.80;99.10;;;;;;5054548;28;20408;-82
2021/06/07 00:20:28;;;;;;;55.58;19.75;;;17.80;99.10;;;;;;5053912;28;20242;-82
2021/06/07 00:22:53;;;;;;;44.78;19.05;;;17.90;99.10;;;;;;5053880;28;20196;-82
2021/06/07 00:25:19;;;;;;;41.33;20.13;;;17.90;99.10;;;;;;5053846;28;20272;-83
2021/06/07 00:27:45;;;;;;;42.20;17.60;;;17.80;99.10;;;;;;5053774;28;20416;-82
2021/06/07 00:30:12;;;;;;;48.40;19.07;;;17.70;99.10;;;;;;5053597;28;20688;-83
2021/06/07 00:32:37;;;;;;;39.88;19.50;;;17.70;99.10;;;;;;5053236;28;20245;-82
2021/06/07 00:35:03;;;;;;;48.33;19.63;;;17.70;99.10;;;;;;5053886;28;20205;-82
2021/06/07 00:37:29;;;;;;;46.28;18.77;;;17.80;99.10;;;;;;5054517;28;20183;-82
2021/06/07 00:39:55;;;;;;;58.35;19.55;;;17.80;99.10;;;;;;5054349;28;20260;-82
2021/06/07 00:42:21;;;;;;;42.43;17.93;;;17.80;99.10;;;;;;5054979;28;20193;-82
2021/06/07 00:44:47;;;;;;;38.20;17.27;;;17.70;99.10;;;;;;5054282;28;20470;-82
2021/06/07 00:47:13;;;;;;;44.90;18.90;;;17.70;99.10;;;;;;5053617;28;20173;-83
2021/06/07 00:49:39;;;;;;;47.72;19.60;;;17.70;99.10;;;;;;5052852;28;20177;-81
2021/06/07 00:52:05;;;;;;;48.10;19.60;;;17.70;99.10;;;;;;5053557;28;20197;-83
2021/06/07 00:54:31;;;;;;;46.08;18.60;;;17.70;99.10;;;;;;5053712;28;20455;-82
2021/06/07 00:56:57;;;;;;;40.57;17.30;;;17.70;99.10;;;;;;5053149;28;20219;-83
2021/06/07 00:59:23;;;;;;;44.43;19.40;;;17.70;99.10;;;;;;5053129;28;20419;-82
2021/06/07 01:01:49;;;;;;;46.07;19.30;;;17.70;99.10;;;;;;5052974;28;20540;-82
2021/06/07 01:04:14;;;;;;;40.00;18.60;;;17.70;99.10;;;;;;5053601;28;20422;-82
2021/06/07 01:06:40;;;;;;;49.63;20.60;;;17.70;99.10;;;;;;5053473;28;20169;-82
2021/06/07 01:09:07;;;;;;;48.10;20.07;;;17.60;99.10;;;;;;5052963;28;20458;-82
2021/06/07 01:11:34;;;;;;;51.95;19.70;;;17.60;99.10;;;;;;5052902;28;20193;-83
2021/06/07 01:14:00;;;;;;;47.40;19.77;;;17.60;99.10;;;;;;5053417;28;20203;-83
2021/06/07 01:16:26;;;;;;;42.42;17.55;;;17.60;99.10;;;;;;5056146;28;20173;-83
2021/06/07 01:18:52;;;;;;;43.67;18.23;;;17.50;99.10;;;;;;5059857;28;20677;-83
2021/06/07 01:21:25;;;;;;;44.85;17.27;;;17.60;99.10;;;;;;5059532;28;20532;-83
2021/06/07 01:23:54;;;;;;;41.20;17.75;;;17.50;99.10;;;;;;5059856;28;20200;-83
2021/06/07 01:26:22;;;;;;;44.00;19.70;;;17.60;99.10;;;;;;5059983;28;20263;-83
2021/06/07 01:28:49;;;;;;;50.33;20.05;;;17.50;99.10;;;;;;5059649;28;20199;-83
2021/06/07 01:31:17;;;;;;;46.38;19.35;;;17.50;99.10;;;;;;5059474;28;20216;-83
2021/06/07 01:33:46;;;;;;;45.10;18.38;;;17.50;99.10;;;;;;5059626;28;20203;-84
2021/06/07 01:36:12;;;;;;;44.65;16.95;;;17.50;99.10;;;;;;5060155;28;20559;-83
2021/06/07 01:38:39;;;;;;;44.35;16.77;;;17.60;99.10;;;;;;5060161;28;20558;-83
2021/06/07 01:41:08;;;;;;;46.72;16.83;;;17.60;99.10;;;;;;5059536;28;20637;-83
2021/06/07 01:43:36;;;;;;;41.03;16.85;;;17.60;99.10;;;;;;5059510;28;20213;-83
2021/06/07 01:46:02;;;;;;;44.80;18.00;;;17.60;99.10;;;;;;5059391;28;20172;-83
2021/06/07 01:48:28;;;;;;;55.50;19.80;;;17.60;99.10;;;;;;5059526;28;20173;-84
2021/06/07 01:50:57;;;;;;;44.22;18.90;;;17.60;99.10;;;;;;5058950;28;20184;-83
2021/06/07 01:53:24;;;;;;;48.53;19.52;;;17.60;99.10;;;;;;5059227;28;20260;-83
2021/06/07 01:55:53;;;;;;;54.13;18.92;;;17.60;99.10;;;;;;5059435;28;20176;-83
2021/06/07 01:58:21;;;;;;;44.85;17.70;;;17.60;99.10;;;;;;5059684;28;20535;-83
2021/06/07 02:01:00;;;;;;;49.83;18.48;;;17.70;99.10;;;;;;5059522;28;20173;-83
2021/06/07 02:03:26;;;;;;;42.97;18.63;;;17.60;99.10;;;;;;5059742;28;20609;-83
2021/06/07 02:05:58;;;;;;;43.75;17.83;;;17.60;99.10;;;;;;5059436;28;20255;-83
2021/06/07 02:08:30;;;;;;;49.15;19.95;;;17.60;99.10;;;;;;5059720;28;20184;-81
2021/06/07 02:10:59;;;;;;;51.55;20.02;;;17.50;99.10;;;;;;5059539;28;20157;-82
2021/06/07 02:13:25;;;;;;;48.83;21.27;;;17.50;99.10;;;;;;5059423;28;20241;-82
2021/06/07 02:16:00;;;;;;;56.00;19.80;;;17.50;99.10;;;;;;5059155;28;20257;-82
2021/06/07 02:18:28;;;;;;;56.25;21.55;;;17.50;99.10;;;;;;5059701;28;20403;-82
2021/06/07 02:20:54;;;;;;;56.17;21.45;;;17.40;99.10;;;;;;5060089;28;20165;-82
2021/06/07 02:23:20;;;;;;;55.53;22.45;;;17.40;99.10;;;;;;5059146;28;20177;-83
2021/06/07 02:25:46;;;;;;;57.53;20.83;;;17.40;99.10;;;;;;5059533;28;20703;-82
2021/06/07 02:28:15;;;;;;;60.30;21.52;;;17.40;99.10;;;;;;5056707;28;20400;-83
2021/06/07 02:30:41;;;;;;;65.68;23.33;;;17.40;99.10;;;;;;5056065;28;20189;-82
2021/06/07 02:33:08;;;;;;;51.33;21.23;;;17.50;99.10;;;;;;5056283;28;20688;-82
2021/06/07 02:35:34;;;;;;;57.08;19.88;;;17.50;99.10;;;;;;5056099;28;20193;-83
2021/06/07 02:38:00;;;;;;;61.00;20.42;;;17.50;99.10;;;;;;5055415;28;20177;-82
2021/06/07 02:40:29;;;;;;;52.08;19.73;;;17.50;99.10;;;;;;5055729;28;20272;-83
2021/06/07 02:42:55;;;;;;;69.57;22.33;;;17.40;99.10;;;;;;5055079;28;20189;-82
2021/06/07 02:45:23;;;;;;;54.70;19.25;;;17.50;99.10;;;;;;5055827;28;20173;-82
2021/06/07 02:47:52;;;;;;;59.30;20.10;;;17.50;99.10;;;;;;5055730;28;20184;-82
2021/06/07 02:50:23;;;;;;;54.95;20.77;;;17.40;99.10;;;;;;5055543;28;20227;-82
2021/06/07 02:52:49;;;;;;;53.47;19.48;;;17.50;99.10;;;;;;5054844;28;20197;-82
2021/06/07 02:55:23;;;;;;;49.28;19.20;;;17.50;99.10;;;;;;5055405;28;20266;-82
2021/06/07 02:57:50;;;;;;;57.78;20.17;;;17.50;99.10;;;;;;5055637;28;20173;-82
2021/06/07 03:00:23;;;;;;;61.35;19.77;;;17.50;99.10;;;;;;5055183;28;20172;-83
2021/06/07 03:02:49;;;;;;;54.40;20.90;;;17.50;99.10;;;;;;5054840;28;20794;-83
2021/06/07 03:05:15;;;;;;;60.87;22.07;;;17.40;99.10;;;;;;5055368;28;20177;-83
2021/06/07 03:07:41;;;;;;;60.95;19.20;;;17.40;99.10;;;;;;5055378;28;21129;-83
2021/06/07 03:10:09;;;;;;;54.50;20.80;;;17.30;99.10;;;;;;5055295;28;20240;-82
2021/06/07 03:12:36;;;;;;;56.88;21.75;;;17.30;99.10;;;;;;5054993;28;20470;-82
2021/06/07 03:15:06;;;;;;;52.20;19.90;;;17.30;99.10;;;;;;5055261;28;20204;-83
2021/06/07 03:17:32;;;;;;;54.75;20.83;;;17.30;99.10;;;;;;5055085;28;20170;-82
2021/06/07 03:19:58;;;;;;;51.45;20.25;;;17.30;99.10;;;;;;5054953;28;20771;-83
2021/06/07 03:22:24;;;;;;;57.07;20.30;;;17.30;99.10;;;;;;5054990;28;20232;-83
2021/06/07 03:24:51;;;;;;;50.87;20.80;;;17.40;99.10;;;;;;5055179;28;20906;-83
2021/06/07 03:27:17;;;;;;;52.55;21.08;;;17.40;99.10;;;;;;5054761;28;20439;-82
2021/06/07 03:29:43;;;;;;;65.82;21.85;;;17.40;99.10;;;;;;5055153;28;20192;-82
2021/06/07 03:32:09;;;;;;;61.27;23.13;;;17.40;99.10;;;;;;5055125;28;20759;-82
2021/06/07 03:34:35;;;;;;;63.28;22.38;;;17.30;99.10;;;;;;5054720;28;20451;-82
2021/06/07 03:37:01;;;;;;;63.60;22.73;;;17.30;99.10;;;;;;5054936;28;20637;-83
2021/06/07 03:39:27;;;;;;;64.38;21.33;;;17.30;99.10;;;;;;5053602;28;20408;-83
2021/06/07 03:41:53;;;;;;;63.53;23.07;;;17.30;99.10;;;;;;5054439;28;20238;-84
2021/06/07 03:44:19;;;;;;;60.50;25.60;;;17.30;99.10;;;;;;5054255;28;20185;-84
2021/06/07 03:46:44;;;;;;;67.27;24.27;;;17.30;99.10;;;;;;5054618;28;20226;-84
2021/06/07 03:49:10;;;;;;;74.60;24.60;;;17.30;99.10;;;;;;5054597;28;20197;-85
2021/06/07 03:51:36;;;;;;;54.73;23.40;;;17.30;99.10;;;;;;5040288;28;20312;-84
2021/06/07 03:54:02;;;;;;;74.53;21.00;;;17.30;99.10;;;;;;5034212;28;20205;-85
2021/06/07 03:56:27;;;;;;;63.47;21.43;;;17.30;99.10;;;;;;5050156;28;20404;-85
2021/06/07 03:58:53;;;;;;;56.30;21.60;;;17.40;99.10;;;;;;5040115;28;20420;-85
2021/06/07 04:01:19;;;;;;;74.10;24.00;;;17.30;99.10;;;;;;5034181;28;20432;-84
2021/06/07 04:03:45;;;;;;;69.27;23.23;;;17.30;99.10;;;;;;5034656;28;20265;-85
2021/06/07 04:06:12;;;;;;;54.43;18.40;;;17.30;99.10;;;;;;5034612;28;20177;-85
2021/06/07 04:08:38;;;;;;;56.58;19.85;;;17.30;99.10;;;;;;5034295;28;21003;-83
2021/06/07 04:11:04;;;;;;;63.67;21.77;;;17.30;99.10;;;;;;5034698;28;20181;-82
2021/06/07 04:13:30;;;;;;;56.93;21.40;;;17.40;99.10;;;;;;5033626;28;20178;-83
2021/06/07 04:15:55;;;;;;;68.10;21.80;;;17.30;99.10;;;;;;5035069;28;20182;-83
2021/06/07 04:18:21;;;;;;;62.67;23.20;;;17.20;99.10;;;;;;5035792;28;20411;-84
2021/06/07 04:20:47;;;;;;;52.70;21.00;;;17.20;99.10;;;;;;5033806;28;20413;-83
2021/06/07 04:23:13;;;;;;;67.90;22.17;;;17.20;99.10;;;;;;5033797;28;20200;-83
2021/06/07 04:25:38;;;;;;;68.10;22.43;;;17.20;99.10;;;;;;5034104;28;20450;-84
2021/06/07 04:28:05;;;;;;;68.60;23.23;;;17.20;99.10;;;;;;5034440;28;20228;-84
2021/06/07 04:30:32;;;;;;;70.70;23.30;;;17.20;99.10;;;;;;5034820;28;20190;-84
2021/06/07 04:32:59;;;;;;;76.90;24.73;;;17.20;99.10;;;;;;5035938;28;20190;-84
2021/06/07 04:35:25;;;;;;;71.57;24.23;;;17.20;99.10;;;;;;5035219;28;20289;-82
2021/06/07 04:37:56;;;;;;;72.45;26.30;;;17.20;99.10;;;;;;5034302;28;20268;-82
2021/06/07 04:40:31;;;;;;;64.32;23.00;;;17.20;99.10;;;;;;5034375;28;20693;-83
2021/06/07 04:42:58;;;;;;;69.53;22.85;;;17.20;99.10;;;;;;5034875;28;20246;-83
2021/06/07 04:45:26;;;;;;;70.40;23.42;;;17.20;99.10;;;;;;5033713;28;20182;-84
2021/06/07 04:47:51;;;;;;;60.78;23.60;;;17.20;99.10;;;;;;5033419;28;20542;-83
2021/06/07 04:50:20;;;;;;;72.60;24.90;;;17.20;99.10;;;;;;5034102;28;20178;-83
2021/06/07 04:53:01;;;;;;;71.75;24.23;;;17.20;99.10;;;;;;5033163;28;20514;-83
2021/06/07 04:55:48;;;;;;;74.85;24.73;;;17.10;99.10;;;;;;5033627;28;20570;-83
2021/06/07 04:58:16;;;;;;;74.75;25.48;;;17.20;99.10;;;;;;5033056;28;20227;-83
2021/06/07 05:00:44;;;;;;;70.65;25.73;;;17.20;99.10;;;;;;5033462;28;20316;-83
2021/06/07 05:03:10;;;;;;;76.05;24.73;;;17.10;99.10;;;;;;5033341;28;20194;-83
2021/06/07 05:05:36;;;;;;;66.85;25.10;;;17.10;99.10;;;;;;5034021;28;20185;-82
2021/06/07 05:08:03;;;;;;;78.75;24.77;;;17.10;99.10;;;;;;5033796;28;20268;-82
2021/06/07 05:10:29;;;;;;;76.07;26.30;;;17.10;99.10;;;;;;5035107;28;20173;-82
2021/06/07 05:12:54;;;;;;;86.03;25.13;;;17.10;99.10;;;;;;5033657;28;20197;-82
2021/06/07 05:15:21;;;;;;;78.03;26.37;;;17.10;99.10;;;;;;5033299;28;20452;-83
2021/06/07 05:17:47;;;;;;;71.93;25.98;;;17.10;99.10;;;;;;5034989;28;20904;-82
2021/06/07 05:20:25;;;;;;;70.50;24.83;;;17.20;99.10;;;;;;5033349;28;20170;-82
2021/06/07 05:22:52;;;;;;;72.20;26.63;;;17.10;99.10;;;;;;5033871;28;20431;-83
2021/06/07 05:25:19;;;;;;;71.75;24.75;;;17.10;99.10;;;;;;5032750;28;20181;-82
2021/06/07 05:27:45;;;;;;;73.03;24.85;;;17.20;99.10;;;;;;5033208;28;20185;-82
2021/06/07 05:30:11;;;;;;;75.55;25.60;;;17.10;99.10;;;;;;5032749;28;20193;-83
2021/06/07 05:32:37;;;;;;;79.63;26.25;;;17.20;99.10;;;;;;5033095;28;20198;-83
2021/06/07 05:35:07;;;;;;;71.10;24.17;;;17.20;99.10;;;;;;5032641;28;20205;-83
2021/06/07 05:37:33;;;;;;;69.53;25.08;;;17.20;99.10;;;;;;5032567;28;20166;-83
2021/06/07 05:39:59;;;;;;;80.38;25.77;;;17.30;99.10;;;;;;5032706;28;20311;-83
2021/06/07 05:42:25;;;;;;;79.27;27.77;;;17.30;99.10;;;;;;5032882;28;20205;-82
2021/06/07 05:44:51;;;;;;;70.18;23.63;;;17.30;99.10;;;;;;5034015;28;20704;-82
2021/06/07 05:47:17;;;;;;;64.57;21.33;;;17.30;99.10;;;;;;5032763;28;20170;-81
2021/06/07 05:49:43;;;;;;;67.43;23.63;;;17.30;99.10;;;;;;5033315;28;20847;-82
2021/06/07 05:52:10;;;;;;;73.30;21.53;;;17.30;99.10;;;;;;5032895;28;20436;-82
2021/06/07 05:54:37;;;;;;;56.08;20.25;;;17.30;99.10;;;;;;5033208;28;20230;-82
2021/06/07 05:57:04;;;;;;;66.60;23.88;;;17.30;99.10;;;;;;5033286;28;20170;-83
2021/06/07 05:59:31;;;;;;;59.80;20.88;;;17.30;99.10;;;;;;5033167;28;20174;-83
2021/06/07 06:01:56;;;;;;;70.53;24.00;;;17.30;99.10;;;;;;5032944;28;20218;-82
2021/06/07 06:04:23;;;;;;;63.50;21.10;;;17.40;99.10;;;;;;5036602;28;20188;-82
2021/06/07 06:06:50;;;;;;;62.88;21.25;;;17.40;99.10;;;;;;5036510;28;20472;-82
2021/06/07 06:09:15;;;;;;;54.58;20.70;;;17.50;99.10;;;;;;5037062;28;20657;-83
2021/06/07 06:11:42;;;;;;;68.43;22.10;;;17.50;99.10;;;;;;5036794;28;20193;-83
2021/06/07 06:14:08;;;;;;;66.15;21.38;;;17.50;99.10;;;;;;5036729;28;20456;-82
2021/06/07 06:16:34;;;;;;;61.97;20.73;;;17.50;99.10;;;;;;5036629;28;20328;-83
2021/06/07 06:19:00;;;;;;;56.60;22.07;;;17.40;99.10;;;;;;5037067;28;20178;-82
2021/06/07 06:21:27;;;;;;;64.10;20.87;;;17.50;99.10;;;;;;5036294;28;20696;-82
2021/06/07 06:23:54;;;;;;;67.18;23.88;;;17.40;99.10;;;;;;5036325;28;20264;-82
2021/06/07 06:26:20;;;;;;;59.70;20.92;;;17.40;99.10;;;;;;5036820;28;20174;-83
2021/06/07 06:28:46;;;;;;;60.72;21.27;;;17.40;99.10;;;;;;5036452;28;20209;-83
2021/06/07 06:31:12;;;;;;;52.53;18.83;;;17.50;99.10;;;;;;5036212;28;20213;-83
2021/06/07 06:33:39;;;;;;;57.08;19.90;;;17.40;99.10;;;;;;5036419;28;20421;-84
2021/06/07 06:36:05;;;;;;;54.28;20.42;;;17.40;99.10;;;;;;5035867;28;20174;-83
2021/06/07 06:38:31;;;;;;;63.08;20.00;;;17.40;99.10;;;;;;5035961;28;20173;-83
2021/06/07 06:40:57;;;;;;;65.20;22.77;;;17.40;99.10;;;;;;5036168;28;20174;-82
2021/06/07 06:43:23;;;;;;;46.83;17.37;;;17.50;99.10;;;;;;5036060;28;20416;-82
2021/06/07 06:45:49;;;;;;;58.88;22.33;;;17.50;99.10;;;;;;5036250;28;20421;-83
2021/06/07 06:48:16;;;;;;;50.45;18.88;;;17.50;99.10;;;;;;5035874;28;20604;-82
2021/06/07 06:50:43;;;;;;;59.17;21.33;;;17.50;99.10;;;;;;5035622;28;20182;-83
2021/06/07 06:53:16;;;;;;;51.13;19.25;;;17.50;99.10;;;;;;5035855;28;20236;-83
2021/06/07 06:55:46;;;;;;;58.70;19.75;;;17.40;99.10;;;;;;5035605;28;20197;-83
2021/06/07 06:58:12;;;;;;;52.53;21.63;;;17.40;99.10;;;;;;5036334;28;20154;-83
2021/06/07 07:00:39;;;;;;;69.25;22.80;;;17.40;99.10;;;;;;5035518;28;20654;-83
2021/06/07 07:03:10;;;;;;;63.85;20.48;;;17.40;99.10;;;;;;5035555;28;20343;-83
2021/06/07 07:05:36;;;;;;;55.50;20.75;;;17.40;99.10;;;;;;5035676;28;20166;-83
2021/06/07 07:08:03;;;;;;;58.75;21.77;;;17.30;99.10;;;;;;5035723;28;20197;-83
2021/06/07 07:10:29;;;;;;;56.75;20.52;;;17.30;99.10;;;;;;5036638;28;20166;-83
2021/06/07 07:12:55;;;;;;;56.58;19.67;;;17.20;99.10;;;;;;5035752;28;20224;-82
2021/06/07 07:15:21;;;;;;;55.83;21.60;;;17.30;99.10;;;;;;5036272;28;20651;-83
2021/06/07 07:17:47;;;;;;;51.70;19.47;;;17.30;99.10;;;;;;5037129;28;20257;-83
2021/06/07 07:20:13;;;;;;;65.97;21.77;;;17.30;99.10;;;;;;5036323;28;20197;-82
2021/06/07 07:22:40;;;;;;;54.47;18.30;;;17.40;99.10;;;;;;5035397;28;20728;-83
2021/06/07 07:25:07;;;;;;;46.60;19.48;;;17.40;99.10;;;;;;5035933;28;20660;-83
2021/06/07 07:27:35;;;;;;;55.67;20.73;;;17.40;99.10;;;;;;5036323;28;20205;-82
2021/06/07 07:30:05;;;;;;;47.35;18.63;;;17.50;99.10;;;;;;5035833;28;20320;-83
2021/06/07 07:32:31;;;;;;;69.60;20.00;;;17.50;99.10;;;;;;5036233;28;20740;-83
2021/06/07 07:34:57;;;;;;;42.67;17.33;;;17.50;99.10;;;;;;5036149;28;20198;-83
2021/06/07 07:37:22;;;;;;;44.70;16.10;;;17.50;99.10;;;;;;5036067;28;20455;-83
2021/06/07 07:39:49;;;;;;;54.07;18.53;;;17.50;99.10;;;;;;5035685;28;20781;-82
2021/06/07 07:42:14;;;;;;;51.17;18.23;;;17.60;99.10;;;;;;5035314;28;20443;-83
2021/06/07 07:44:40;;;;;;;57.83;20.17;;;17.60;99.10;;;;;;5036481;28;20170;-83
2021/06/07 07:47:07;;;;;;;45.53;18.17;;;17.50;99.10;;;;;;5035778;28;20416;-84
2021/06/07 07:49:34;;;;;;;49.97;18.60;;;17.60;99.10;;;;;;5035917;28;20418;-82
2021/06/07 07:52:00;;;;;;;50.78;19.88;;;;;;;;;;5035774;28;20288;-83
2021/06/07 07:54:26;;;;;;;43.92;16.75;;;;;;;;;;5034884;28;20194;-82
2021/06/07 07:56:52;;;;;;;60.97;19.65;;;;;;;;;;5034989;28;20173;-83
2021/06/07 07:59:18;;;;;;;40.28;15.05;;;;;;;;;;5036042;28;20174;-84
2021/06/07 08:01:45;;;;;;;46.63;15.13;;;17.70;99.10;;;;;;5035334;28;20202;-82
2021/06/07 08:04:11;;;;;;;44.63;15.73;;;17.70;99.10;;;;;;5035633;28;20623;-83
2021/06/07 08:06:37;;;;;;;37.53;14.65;;;17.70;99.10;;;;;;5035327;28;20185;-83
2021/06/07 08:09:03;;;;;;;37.37;13.17;;;17.80;99.10;;;;;;5035387;28;20550;-83
2021/06/07 08:11:29;;;;;;;32.65;14.13;;;17.80;99.10;;;;;;5034692;28;20198;-83
2021/06/07 08:13:54;;;;;;;35.80;12.80;;;17.90;99.10;;;;;;5035447;28;20205;-83
2021/06/07 08:16:21;;;;;;;31.43;12.20;;;18.00;99.10;;;;;;5034760;28;20641;-82
2021/06/07 08:18:46;;;;;;;29.80;12.60;;;18.00;99.10;;;;;;5035074;28;20228;-83
2021/06/07 08:21:12;;;;;;;31.40;12.10;;;18.00;99.10;;;;;;5034839;28;20197;-83
2021/06/07 08:23:38;;;;;;;31.90;10.80;;;18.10;99.10;;;;;;5035429;28;20413;-83
2021/06/07 08:26:05;;;;;;;30.90;14.80;;;18.10;99.10;;;;;;5034576;28;20409;-83
2021/06/07 08:28:31;;;;;;;25.30;11.30;;;18.10;99.10;;;;;;5034113;28;20416;-83
2021/06/07 08:30:56;;;;;;;24.97;12.43;;;18.10;99.10;;;;;;5034103;28;20190;-82
2021/06/07 08:33:22;;;;;;;21.83;10.90;;;18.10;99.10;;;;;;5034327;28;20177;-83
2021/06/07 08:35:48;;;;;;;22.43;10.87;;;18.10;99.10;;;;;;5034268;28;20208;-83
2021/06/07 08:38:14;;;;;;;25.17;10.57;;;18.20;99.10;;;;;;5034356;28;20412;-83
2021/06/07 08:40:40;;;;;;;26.77;10.23;;;18.30;99.10;;;;;;5034228;28;20834;-82
2021/06/07 08:43:06;;;;;;;20.60;10.17;;;18.30;99.10;;;;;;5034783;28;20424;-83
2021/06/07 08:45:32;;;;;;;20.52;10.45;;;18.30;99.10;;;;;;5035662;28;20911;-83
2021/06/07 08:47:58;;;;;;;24.03;10.80;;;18.40;99.10;;;;;;5034943;28;20161;-84
2021/06/07 08:50:29;;;;;;;25.10;10.95;;;18.40;99.10;;;;;;5034484;28;20486;-83
2021/06/07 08:52:55;;;;;;;28.25;13.05;;;18.50;99.10;;;;;;5033895;28;20197;-84
2021/06/07 08:55:23;;;;;;;27.80;13.63;;;18.50;99.10;;;;;;5033537;28;20204;-84
2021/06/07 08:57:54;;;;;;;28.05;13.30;;;18.50;99.10;;;;;;5033851;28;20292;-83
2021/06/07 09:00:28;;;;;;;30.88;13.75;;;18.50;99.10;;;;;;5033624;28;20174;-84
2021/06/07 09:03:10;;;;;;;33.90;13.18;;;18.50;99.10;;;;;;5034121;28;20194;-83
2021/06/07 09:05:38;;;;;;;27.65;12.90;;;18.50;99.10;;;;;;5035026;28;20177;-83
2021/06/07 09:08:15;;;;;;;29.13;13.00;;;18.60;99.10;;;;;;5033700;28;20272;-84
2021/06/07 09:10:50;;;;;;;31.50;13.68;;;18.60;99.10;;;;;;5034454;28;20702;-84
2021/06/07 09:13:18;;;;;;;37.65;15.10;;;18.60;99.10;;;;;;5034341;28;20645;-83
2021/06/07 09:15:52;;;;;;;32.97;13.82;;;18.60;99.10;;;;;;5033565;28;20198;-83
2021/06/07 09:18:33;;;;;;;31.10;13.30;;;18.70;99.10;;;;;;5034657;28;20189;-83
2021/06/07 09:21:01;;;;;;;34.97;14.18;;;18.70;99.10;;;;;;5033197;28;20260;-83
2021/06/07 09:23:43;;;;;;;32.65;13.82;;;18.70;99.10;;;;;;5034602;28;20256;-83
2021/06/07 09:26:23;;;;;;;42.95;14.75;;;18.60;99.10;;;;;;5033843;28;20169;-83
2021/06/07 09:28:49;;;;;;;35.22;14.10;;;18.60;99.10;;;;;;5033950;28;20174;-83
2021/06/07 09:31:15;;;;;;;33.05;14.55;;;18.60;99.10;;;;;;5033418;28;20590;-83
2021/06/07 09:33:47;;;;;;;35.17;12.63;;;18.50;99.10;;;;;;5033563;28;20173;-83
2021/06/07 09:36:21;;;;;;;31.48;14.88;;;18.50;99.10;;;;;;5034366;28;20212;-83
2021/06/07 09:38:59;;;;;;;45.25;17.10;;;18.60;99.10;;;;;;5036760;28;20181;-83
2021/06/07 09:41:30;;;;;;;38.20;15.45;;;18.60;99.10;;;;;;5037085;28;20213;-83
2021/06/07 09:44:03;;;;;;;31.23;14.63;;;18.60;99.10;;;;;;5037362;28;20515;-84
2021/06/07 09:46:31;;;;;;;39.70;12.95;;;18.70;99.10;;;;;;5036714;28;20331;-83
2021/06/07 09:49:22;;;;;;;37.72;15.05;;;18.70;99.10;;;;;;5036997;28;20271;-84
2021/06/07 09:51:53;;;;;;;37.38;14.00;;;18.70;99.10;;;;;;5039410;28;20204;-82
2021/06/07 09:54:18;;;;;;;33.65;14.85;;;18.80;99.10;;;;;;5038907;28;20197;-83
2021/06/07 09:56:53;;;;;;;37.20;15.53;;;18.90;99.10;;;;;;5039642;28;20668;-83
2021/06/07 09:59:31;;;;;;;28.75;13.32;;;19.10;99.10;;;;;;5038355;28;20196;-83
2021/06/07 10:01:58;;;;;;;33.08;14.73;;;19.10;99.10;;;;;;5037786;28;20212;-83
2021/06/07 10:04:55;;;;;;;34.92;15.23;;;19.20;99.10;;;;;;5036880;28;20174;-83
2021/06/07 10:07:21;;;;;;;30.80;14.75;;;19.30;99.10;;;;;;5037106;28;20177;-83
2021/06/07 10:10:19;;;;;;;37.65;16.10;;;19.40;99.10;;;;;;5036402;28;20513;-84
2021/06/07 10:12:46;;;;;;;37.70;14.32;;;19.40;98.60;;;;;;5036364;28;20202;-83
2021/06/07 10:15:29;;;;;;;29.10;12.82;;;19.40;98.80;;;;;;5036304;28;20681;-87
2021/06/07 10:17:55;;;;;;;36.65;15.63;;;19.40;98.70;;;;;;5036674;28;20166;-87
2021/06/07 10:22:47;;;;;;;37.77;16.10;;;19.30;98.90;;;;;;5038301;28;20435;-87
2021/06/07 10:25:13;;;;;;;44.13;17.20;;;19.40;98.80;;;;;;5036050;28;20178;-87
2021/06/07 10:27:39;;;;;;;33.40;14.98;;;19.40;98.80;;;;;;5036278;28;20932;-88
2021/06/07 10:30:16;;;;;;;37.00;16.25;;;19.40;98.70;;;;;;5036613;28;20201;-87
2021/06/07 10:32:42;;;;;;;38.20;15.68;;;19.40;98.90;;;;;;5036579;28;20194;-87
2021/06/07 10:35:09;;;;;;;41.80;14.90;;;19.50;98.30;;;;;;5036937;28;20538;-86
2021/06/07 10:37:35;;;;;;;39.65;15.20;;;19.50;98.00;;;;;;5036996;28;20201;-85
2021/06/07 10:40:19;;;;;;;37.95;17.00;;;19.60;98.00;;;;;;5036337;28;20221;-86
2021/06/07 10:43:03;;;;;;;38.45;15.32;;;19.50;97.90;;;;;;5036012;28;20198;-87
2021/06/07 10:45:32;;;;;;;45.53;17.02;;;19.50;98.20;;;;;;5035868;28;20165;-87
2021/06/07 10:48:00;;;;;;;36.97;17.67;;;19.60;97.70;;;;;;5036125;28;20601;-87
2021/06/07 10:50:28;;;;;;;49.38;17.50;;;19.60;97.90;;;;;;5035627;28;20572;-87
2021/06/07 10:53:06;;;;;;;38.10;15.65;;;19.60;98.30;;;;;;5035315;28;20266;-87
2021/06/07 10:55:40;;;;;;;36.17;17.23;;;19.60;97.70;;;;;;5036588;28;20530;-83
2021/06/07 10:58:08;;;;;;;34.65;16.20;;;19.60;98.20;;;;;;5036681;28;20260;-82
2021/06/07 11:00:40;;;;;;;32.75;15.25;;;19.70;98.00;;;;;;5036272;28;20228;-85
2021/06/07 11:03:22;;;;;;;33.83;15.90;;;19.70;98.00;;;;;;5035970;28;20708;-85
2021/06/07 11:06:03;;;;;;;42.47;16.95;;;19.80;97.70;;;;;;5036247;28;20252;-85
2021/06/07 11:08:32;;;;;;;30.13;14.45;;;19.80;97.60;;;;;;5036565;28;20166;-85
2021/06/07 11:11:14;;;;;;;32.42;16.35;;;19.70;97.90;;;;;;5035956;28;20177;-86
2021/06/07 11:13:54;;;;;;;39.55;19.50;;;19.70;97.80;;;;;;5035543;28;20231;-87
2021/06/07 11:16:31;;;;;;;40.65;17.73;;;19.70;97.70;;;;;;5035092;28;20223;-86
2021/06/07 11:19:14;;;;;;;40.40;18.30;;;19.70;97.50;;;;;;5034966;28;20173;-86
2021/06/07 11:21:45;;;;;;;42.80;18.25;;;19.70;98.10;;;;;;5035224;28;20666;-86
2021/06/07 11:24:37;;;;;;;36.08;16.35;;;19.80;97.50;;;;;;5035365;28;20173;-86
2021/06/07 11:27:07;;;;;;;41.83;17.70;;;19.90;97.60;;;;;;5034968;28;20240;-85
2021/06/07 11:29:34;;;;;;;38.67;18.30;;;20.00;96.90;;;;;;5035437;28;20583;-86
2021/06/07 11:32:06;;;;;;;41.47;18.73;;;20.00;97.00;;;;;;5034653;28;20256;-87
2021/06/07 11:34:48;;;;;;;37.45;16.85;;;20.00;97.10;;;;;;5034880;28;20204;-86
2021/06/07 11:37:35;;;;;;;38.60;16.70;;;20.10;96.60;;;;;;5034946;28;20174;-86
2021/06/07 11:40:06;;;;;;;31.58;16.23;;;20.10;96.60;;;;;;5034507;28;20172;-86
2021/06/07 11:42:32;;;;;;;34.85;17.80;;;20.00;97.00;;;;;;5034559;28;20199;-83
2021/06/07 11:45:00;;;;;;;35.17;15.52;;;20.00;96.80;;;;;;5034952;28;20642;-83
2021/06/07 11:47:42;;;;;;;39.08;17.02;;;20.00;97.50;;;;;;5034954;28;20611;-83
2021/06/07 11:50:18;;;;;;;41.45;18.35;;;20.00;97.20;;;;;;5035250;28;20527;-84
2021/06/07 11:52:51;;;;;;;43.22;18.35;;;20.00;96.80;;;;;;5035422;28;20200;-83
2021/06/07 11:55:19;;;;;;;41.15;18.25;;;19.90;97.30;;;;;;5035677;28;20197;-84
2021/06/07 11:57:46;;;;;;;34.15;16.98;;;19.90;96.90;;;;;;5035372;28;20726;-83
2021/06/07 12:00:13;;;;;;;31.75;15.50;;;19.90;97.30;;;;;;5033853;28;20173;-83
2021/06/07 12:02:39;;;;;;;43.05;17.65;;;20.10;97.20;;;;;;5034491;28;20232;-84
2021/06/07 12:05:14;;;;;;;38.83;16.03;;;20.20;96.60;;;;;;5034998;28;20184;-83
2021/06/07 12:07:44;;;;;;;36.45;17.02;;;20.40;96.40;;;;;;5034112;28;20916;-84
2021/06/07 12:10:16;;;;;;;40.60;15.52;;;20.40;95.80;;;;;;5034447;28;20162;-84
2021/06/07 12:12:43;;;;;;;33.92;16.00;;;20.50;96.10;;;;;;5034856;28;20197;-83
2021/06/07 12:15:16;;;;;;;34.65;16.20;;;20.50;95.70;;;;;;5034958;28;20294;-83
2021/06/07 12:17:52;;;;;;;30.13;14.35;;;20.50;95.30;;;;;;5035208;28;20284;-83
2021/06/07 12:20:21;;;;;;;30.52;15.45;;;20.50;95.70;;;;;;5036282;28;20177;-83
2021/06/07 12:22:49;;;;;;;34.55;17.27;;;20.60;95.80;;;;;;5034559;28;20200;-83
2021/06/07 12:30:38;;;;;;;42.80;19.00;;;20.70;95.20;;;;;;5036636;28;20680;-84
2021/06/07 12:33:05;;;;;;;37.00;17.95;;;20.70;94.90;;;;;;5034840;28;20321;-84
2021/06/07 12:35:32;;;;;;;35.10;16.38;;;20.70;95.40;;;;;;5034138;28;20205;-84
2021/06/07 12:38:03;;;;;;;32.38;15.43;;;20.80;95.30;;;;;;5033872;28;20638;-84
2021/06/07 12:40:53;;;;;;;39.17;17.92;;;20.80;95.30;;;;;;5033752;28;20169;-84
2021/06/07 12:43:30;;;;;;;39.28;17.77;;;21.00;95.20;;;;;;5034057;28;20170;-83